createdAt,value
2022-11-20T00:00:48.108Z,100103.41
2022-11-20T00:03:38.025Z,100100.50
2022-11-20T00:06:29.454Z,100106.41
2022-11-20T00:09:20.587Z,100103.69
2022-11-20T00:12:10.063Z,100098.88
2022-11-20T00:14:59.340Z,100123.28
2022-11-20T00:17:49.141Z,100126.78
2022-11-20T00:20:38.768Z,100121.03
2022-11-20T00:23:28.052Z,100113.81
2022-11-20T00:26:21.586Z,100109.56
2022-11-20T00:29:12.065Z,100120.50
2022-11-20T00:32:01.377Z,100127.41
2022-11-20T00:34:50.868Z,100124.34
2022-11-20T00:37:40.255Z,100126.75
2022-11-20T00:40:29.685Z,100128.66
2022-11-20T00:43:20.354Z,100136.38
2022-11-20T00:46:12.049Z,100124.63
2022-11-20T00:49:01.772Z,100146.44
2022-11-20T00:51:51.067Z,100124.28
2022-11-20T00:54:40.449Z,100147.06
2022-11-20T00:57:29.691Z,100148.69
2022-11-20T01:00:20.864Z,100147.56
2022-11-20T01:03:10.263Z,100145.63
2022-11-20T01:06:03.563Z,100153.34
2022-11-20T01:08:55.593Z,100157.66
2022-11-20T01:11:46.974Z,100151.72
2022-11-20T01:14:36.275Z,100150.28
2022-11-20T01:17:27.111Z,100140.03
2022-11-20T01:20:16.785Z,100144.34
2022-11-20T01:23:06.297Z,100142.09
2022-11-20T01:25:55.627Z,100126.06
2022-11-20T01:28:45.708Z,100137.78
2022-11-20T01:31:37.749Z,100123.59
2022-11-20T01:34:28.462Z,100148.84
2022-11-20T01:37:17.988Z,100151.41
2022-11-20T01:40:08.724Z,100148.31
2022-11-20T01:43:22.342Z,100145.13
2022-11-20T01:46:17.745Z,100148.28
2022-11-20T01:49:14.016Z,100153.41
2022-11-20T01:52:09.744Z,100144.44
2022-11-20T01:55:06.289Z,100160.59
2022-11-20T01:57:55.849Z,100147.72
2022-11-20T02:00:45.905Z,100163.97
2022-11-20T02:03:35.435Z,100155.28
2022-11-20T02:06:30.403Z,100154.97
2022-11-20T02:09:21.426Z,100160.25
2022-11-20T02:12:31.282Z,100130.03
2022-11-20T02:15:19.708Z,100163.03
2022-11-20T02:18:10.405Z,100160.13
2022-11-20T02:21:08.075Z,100160.91
2022-11-20T02:24:09.128Z,100182.72
2022-11-20T02:27:04.419Z,100176.34
2022-11-20T02:29:57.480Z,100179.25
2022-11-20T02:32:47.086Z,100184.22
2022-11-20T02:35:48.647Z,100179.25
2022-11-20T02:38:38.151Z,100174.59
2022-11-20T02:41:39.513Z,100171.56
2022-11-20T02:44:28.769Z,100164.91
2022-11-20T02:47:18.171Z,100158.81
2022-11-20T02:50:08.487Z,100153.53
2022-11-20T02:52:57.776Z,100150.31
2022-11-20T02:55:47.060Z,100152.69
2022-11-20T02:58:37.787Z,100158.78
2022-11-20T03:01:27.249Z,100164.13
2022-11-20T03:04:16.731Z,100161.69
2022-11-20T03:07:06.321Z,100163.75
2022-11-20T03:09:55.642Z,100150.88
2022-11-20T03:12:44.900Z,100153.72
2022-11-20T03:15:35.675Z,100167.09
2022-11-20T03:18:24.998Z,100153.41
2022-11-20T03:21:15.845Z,100158.22
2022-11-20T03:24:05.936Z,100156.19
2022-11-20T03:26:55.233Z,100151.16
2022-11-20T03:29:44.566Z,100135.00
2022-11-20T03:32:35.490Z,100123.50
2022-11-20T03:35:24.860Z,100113.03
2022-11-20T03:38:14.116Z,100120.00
2022-11-20T03:41:05.396Z,100118.97
2022-11-20T03:43:56.935Z,100121.28
2022-11-20T03:46:46.206Z,100118.06
2022-11-20T03:49:37.002Z,100125.91
2022-11-20T03:52:26.365Z,100118.06
2022-11-20T03:55:15.891Z,100133.78
2022-11-20T03:58:05.217Z,100129.44
2022-11-20T04:00:54.405Z,100133.09
2022-11-20T04:03:45.247Z,100116.31
2022-11-20T04:06:40.133Z,100120.97
2022-11-20T04:09:29.583Z,100125.28
2022-11-20T04:12:18.813Z,100128.22
2022-11-20T04:15:09.099Z,100125.50
2022-11-20T04:17:58.360Z,100115.25
2022-11-20T04:20:47.682Z,100101.63
2022-11-20T04:23:38.601Z,100113.78
2022-11-20T04:26:29.793Z,100125.34
2022-11-20T04:29:19.580Z,100122.88
2022-11-20T04:32:09.032Z,100135.28
2022-11-20T04:34:58.628Z,100134.75
2022-11-20T04:37:48.383Z,100146.66
2022-11-20T04:40:39.277Z,100144.41
2022-11-20T04:43:29.762Z,100140.41
2022-11-20T04:46:20.081Z,100146.28
2022-11-20T04:49:10.639Z,100152.03
2022-11-20T04:52:00.375Z,100162.72
2022-11-20T04:54:49.635Z,100157.16
2022-11-20T04:57:40.307Z,100163.09
2022-11-20T05:00:29.635Z,100165.09
2022-11-20T05:03:19.006Z,100159.75
2022-11-20T05:06:10.252Z,100162.00
2022-11-20T05:08:59.572Z,100154.72
2022-11-20T05:11:51.452Z,100173.84
2022-11-20T05:14:42.458Z,100180.09
2022-11-20T05:17:31.762Z,100179.31
2022-11-20T05:20:22.057Z,100190.31
2022-11-20T05:23:11.309Z,100186.19
2022-11-20T05:26:01.575Z,100184.50
2022-11-20T05:28:50.985Z,100183.56
2022-11-20T05:31:42.979Z,100190.91
2022-11-20T05:34:32.289Z,100185.63
2022-11-20T05:37:21.681Z,100186.41
2022-11-20T05:40:13.477Z,100178.53
2022-11-20T05:43:03.128Z,100175.22
2022-11-20T05:45:56.495Z,100170.25
2022-11-20T05:48:48.387Z,100179.06
2022-11-20T05:51:37.604Z,100182.69
2022-11-20T05:54:27.409Z,100180.97
2022-11-20T05:57:16.792Z,100181.13
2022-11-20T06:00:07.434Z,100180.66
2022-11-20T06:02:56.896Z,100183.69
2022-11-20T06:05:47.742Z,100177.22
2022-11-20T06:08:37.573Z,100158.16
2022-11-20T06:11:27.662Z,100155.56
2022-11-20T06:14:17.104Z,100154.47
2022-11-20T06:17:06.515Z,100150.00
2022-11-20T06:19:56.045Z,100146.19
2022-11-20T06:22:46.832Z,100136.28
2022-11-20T06:25:39.124Z,100124.44
2022-11-20T06:28:28.449Z,100133.25
2022-11-20T06:31:20.246Z,100130.38
2022-11-20T06:34:10.574Z,100125.91
2022-11-20T06:36:59.907Z,100128.63
2022-11-20T06:39:50.558Z,100131.56
2022-11-20T06:42:39.824Z,100127.81
2022-11-20T06:45:29.304Z,100130.22
2022-11-20T06:48:18.932Z,100120.47
2022-11-20T06:51:09.770Z,100119.97
2022-11-20T06:53:59.055Z,100134.00
2022-11-20T06:56:51.140Z,100123.91
2022-11-20T06:59:40.559Z,100122.47
2022-11-20T07:02:29.830Z,100129.53
2022-11-20T07:05:19.527Z,100129.84
2022-11-20T07:08:09.654Z,100121.34
2022-11-20T07:11:01.109Z,100127.44
2022-11-20T07:13:52.136Z,100125.50
2022-11-20T07:16:41.501Z,100115.00
2022-11-20T07:19:30.774Z,100114.69
2022-11-20T07:22:22.686Z,100113.72
2022-11-20T07:25:13.532Z,100106.84
2022-11-20T07:28:03.235Z,100106.34
2022-11-20T07:30:55.264Z,100106.72
2022-11-20T07:33:45.142Z,100112.97
2022-11-20T07:36:34.474Z,100120.41
2022-11-20T07:39:23.835Z,100123.63
2022-11-20T07:42:13.997Z,100129.06
2022-11-20T07:45:03.312Z,100125.53
2022-11-20T07:47:54.452Z,100134.09
2022-11-20T07:50:43.855Z,100124.00
2022-11-20T07:53:33.152Z,100105.91
2022-11-20T07:56:22.664Z,100116.56
2022-11-20T07:59:12.894Z,100107.59
2022-11-20T08:02:02.171Z,100104.41
2022-11-20T08:04:52.930Z,100097.19
2022-11-20T08:07:44.099Z,100117.44
2022-11-20T08:10:33.484Z,100110.88
2022-11-20T08:13:39.837Z,100103.19
2022-11-20T08:16:29.126Z,100100.19
2022-11-20T08:19:21.009Z,100098.53
2022-11-20T08:22:12.061Z,100119.72
2022-11-20T08:25:01.535Z,100087.94
2022-11-20T08:27:50.776Z,100107.69
2022-11-20T08:30:40.417Z,100089.91
2022-11-20T08:33:30.202Z,100082.63
2022-11-20T08:36:22.720Z,100083.78
2022-11-20T08:39:16.413Z,100101.19
2022-11-20T08:42:09.675Z,100106.00
2022-11-20T08:44:59.239Z,100109.88
2022-11-20T08:47:49.004Z,100117.94
2022-11-20T08:50:38.522Z,100122.91
2022-11-20T08:53:27.925Z,100121.94
2022-11-20T08:56:19.388Z,100107.47
2022-11-20T08:59:44.056Z,100106.03
2022-11-20T09:02:18.072Z,100104.09
2022-11-20T09:05:08.612Z,100090.47
2022-11-20T09:07:59.320Z,100118.41
2022-11-20T09:10:53.169Z,100085.66
2022-11-20T09:13:43.829Z,100073.44
2022-11-20T09:16:33.146Z,100080.19
2022-11-20T09:19:37.745Z,100065.44
2022-11-20T09:22:27.120Z,100068.00
2022-11-20T09:25:16.830Z,100059.50
2022-11-20T09:28:06.350Z,100062.53
2022-11-20T09:30:57.034Z,100038.66
2022-11-20T09:33:46.291Z,100039.31
2022-11-20T09:36:35.600Z,100039.19
2022-11-20T09:39:24.973Z,100034.53
2022-11-20T09:42:32.942Z,100026.50
2022-11-20T09:45:33.911Z,100025.34
2022-11-20T09:48:50.811Z,100024.78
2022-11-20T09:51:51.232Z,100028.78
2022-11-20T09:54:42.806Z,100031.66
2022-11-20T09:57:38.631Z,100030.06
2022-11-20T10:00:28.953Z,100031.38
2022-11-20T10:03:28.966Z,100038.44
2022-11-20T10:06:24.306Z,100051.25
2022-11-20T10:09:27.968Z,100049.34
2022-11-20T10:12:25.323Z,100048.72
2022-11-20T10:15:31.594Z,100041.84
2022-11-20T10:18:38.596Z,100037.06
2022-11-20T10:21:42.363Z,100049.25
2022-11-20T10:24:45.743Z,100047.63
2022-11-20T10:27:49.194Z,100043.47
2022-11-20T10:30:43.834Z,100046.66
2022-11-20T10:33:57.094Z,100066.91
2022-11-20T10:36:55.208Z,100065.63
2022-11-20T10:39:53.005Z,100048.94
2022-11-20T10:42:52.013Z,100066.22
2022-11-20T10:45:55.258Z,100063.03
2022-11-20T10:48:46.554Z,100073.94
2022-11-20T10:51:47.799Z,100093.69
2022-11-20T10:54:49.796Z,100092.22
2022-11-20T10:57:56.836Z,100083.41
2022-11-20T11:00:46.177Z,100093.50
2022-11-20T11:03:36.029Z,100113.63
2022-11-20T11:06:34.309Z,100106.00
2022-11-20T11:09:37.917Z,100116.09
2022-11-20T11:12:31.104Z,100118.41
2022-11-20T11:15:30.434Z,100100.44
2022-11-20T11:18:31.259Z,100135.63
2022-11-20T11:21:27.156Z,100133.41
2022-11-20T11:24:41.728Z,100133.09
2022-11-20T11:27:33.261Z,100133.25
2022-11-20T11:30:23.489Z,100122.75
2022-11-20T11:33:20.497Z,100112.44
2022-11-20T11:36:25.717Z,100110.09
2022-11-20T11:39:20.987Z,100113.66
2022-11-20T11:42:18.899Z,100119.16
2022-11-20T11:45:18.271Z,100111.34
2022-11-20T11:48:11.833Z,100114.13
2022-11-20T11:51:01.142Z,100132.16
2022-11-20T11:53:50.467Z,100124.09
2022-11-20T11:56:40.059Z,100147.78
2022-11-20T11:59:40.783Z,100136.78
2022-11-20T12:02:40.618Z,100143.47
2022-11-20T12:05:34.502Z,100130.66
2022-11-20T12:08:29.608Z,100141.59
2022-11-20T12:11:26.479Z,100136.09
2022-11-20T12:14:25.026Z,100152.44
2022-11-20T12:17:16.511Z,100132.91
2022-11-20T12:20:15.477Z,100130.97
2022-11-20T12:23:16.687Z,100132.75
2022-11-20T12:26:20.447Z,100119.41
2022-11-20T12:29:20.843Z,100127.38
2022-11-20T12:32:42.311Z,100122.53
2022-11-20T12:35:50.996Z,100134.41
2022-11-20T12:39:06.329Z,100128.94
2022-11-20T12:42:37.646Z,100147.63
2022-11-20T12:46:15.889Z,100160.09
2022-11-20T12:49:32.088Z,100138.84
2022-11-20T12:52:41.437Z,100147.44
2022-11-20T12:55:50.461Z,100141.31
2022-11-20T12:58:48.890Z,100145.25
2022-11-20T13:01:50.716Z,100157.81
2022-11-20T13:05:27.172Z,100142.72
2022-11-20T13:08:25.155Z,100145.31
2022-11-20T13:11:21.124Z,100132.06
2022-11-20T13:14:29.030Z,100138.50
2022-11-20T13:17:26.986Z,100144.03
2022-11-20T13:20:19.306Z,100153.25
2022-11-20T13:23:08.588Z,100160.31
2022-11-20T13:26:19.865Z,100155.91
2022-11-20T13:29:18.622Z,100167.66
2022-11-20T13:32:15.991Z,100165.25
2022-11-20T13:35:07.106Z,100170.44
2022-11-20T13:38:09.144Z,100150.19
2022-11-20T13:41:21.141Z,100151.50
2022-11-20T13:44:26.206Z,100155.19
2022-11-20T13:47:25.072Z,100174.66
2022-11-20T13:50:17.433Z,100175.31
2022-11-20T13:53:24.931Z,100175.94
2022-11-20T13:56:26.721Z,100176.28
2022-11-20T13:59:39.289Z,100180.47
2022-11-20T14:02:32.003Z,100183.00
2022-11-20T14:05:25.454Z,100182.53
2022-11-20T14:08:23.648Z,100162.91
2022-11-20T14:11:19.533Z,100171.25
2022-11-20T14:14:20.686Z,100185.56
2022-11-20T14:17:19.143Z,100185.72
2022-11-20T14:20:15.233Z,100198.94
2022-11-20T14:23:06.212Z,100188.19
2022-11-20T14:25:55.840Z,100193.47
2022-11-20T14:28:45.153Z,100197.19
2022-11-20T14:31:35.923Z,100217.94
2022-11-20T14:34:28.255Z,100217.41
2022-11-20T14:37:25.041Z,100193.47
2022-11-20T14:40:28.466Z,100211.16
2022-11-20T14:43:26.114Z,100219.66
2022-11-20T14:46:16.668Z,100205.19
2022-11-20T14:49:07.699Z,100196.53
2022-11-20T14:52:04.687Z,100207.44
2022-11-20T14:54:56.328Z,100193.63
2022-11-20T14:57:45.644Z,100198.59
2022-11-20T15:00:38.200Z,100192.66
2022-11-20T15:03:35.165Z,100201.47
2022-11-20T15:06:29.012Z,100201.66
2022-11-20T15:09:18.582Z,100220.25
2022-11-20T15:12:20.622Z,100213.03
2022-11-20T15:15:17.128Z,100212.38
2022-11-20T15:18:06.881Z,100219.63
2022-11-20T15:20:58.834Z,100208.03
2022-11-20T15:23:49.813Z,100220.03
2022-11-20T15:26:40.314Z,100213.78
2022-11-20T15:29:30.214Z,100219.69
2022-11-20T15:32:19.537Z,100213.53
2022-11-20T15:35:10.783Z,100217.72
2022-11-20T15:38:00.072Z,100225.69
2022-11-20T15:40:50.911Z,100227.41
2022-11-20T15:43:40.273Z,100230.66
2022-11-20T15:46:33.934Z,100227.25
2022-11-20T15:49:24.735Z,100238.47
2022-11-20T15:52:15.368Z,100236.56
2022-11-20T15:55:09.829Z,100234.59
2022-11-20T15:58:00.733Z,100247.59
2022-11-20T16:00:51.201Z,100247.88
2022-11-20T16:03:40.864Z,100249.47
2022-11-20T16:06:30.323Z,100240.16
2022-11-20T16:09:19.705Z,100238.34
2022-11-20T16:12:31.150Z,100247.34
2022-11-20T16:15:39.228Z,100261.88
2022-11-20T16:18:28.653Z,100264.44
2022-11-20T16:21:18.047Z,100264.38
2022-11-20T16:24:09.430Z,100251.19
2022-11-20T16:26:59.122Z,100255.59
2022-11-20T16:29:48.518Z,100260.09
2022-11-20T16:32:39.766Z,100263.47
2022-11-20T16:35:30.145Z,100266.69
2022-11-20T16:38:19.513Z,100260.75
2022-11-20T16:41:14.556Z,100255.50
2022-11-20T16:44:09.497Z,100254.94
2022-11-20T16:46:58.889Z,100256.19
2022-11-20T16:49:49.628Z,100248.97
2022-11-20T16:52:39.314Z,100243.34
2022-11-20T16:55:28.684Z,100245.66
2022-11-20T16:58:18.488Z,100250.78
2022-11-20T17:01:10.807Z,100249.31
2022-11-20T17:04:02.227Z,100264.06
2022-11-20T17:06:53.064Z,100257.59
2022-11-20T17:09:43.051Z,100258.22
2022-11-20T17:12:32.306Z,100259.34
2022-11-20T17:15:21.573Z,100256.16
2022-11-20T17:18:10.913Z,100255.69
2022-11-20T17:21:04.662Z,100247.31
2022-11-20T17:23:55.396Z,100254.38
2022-11-20T17:26:46.409Z,100257.50
2022-11-20T17:29:41.791Z,100252.94
2022-11-20T17:32:31.455Z,100255.19
2022-11-20T17:35:20.829Z,100270.72
2022-11-20T17:38:10.292Z,100266.25
2022-11-20T17:41:06.451Z,100277.97
2022-11-20T17:43:57.733Z,100270.31
2022-11-20T17:46:47.052Z,100268.69
2022-11-20T17:49:36.376Z,100276.19
2022-11-20T17:52:25.682Z,100276.66
2022-11-20T17:55:15.219Z,100273.44
2022-11-20T17:58:06.672Z,100264.56
2022-11-20T18:00:56.103Z,100266.09
2022-11-20T18:03:45.615Z,100271.53
2022-11-20T18:06:35.269Z,100267.69
2022-11-20T18:09:24.825Z,100259.44
2022-11-20T18:12:14.126Z,100270.72
2022-11-20T18:15:05.323Z,100278.28
2022-11-20T18:17:54.814Z,100273.56
2022-11-20T18:20:44.108Z,100287.38
2022-11-20T18:23:35.606Z,100281.81
2022-11-20T18:26:25.926Z,100276.69
2022-11-20T18:29:17.605Z,100277.31
2022-11-20T18:32:08.383Z,100268.84
2022-11-20T18:34:57.732Z,100269.31
2022-11-20T18:37:47.048Z,100263.47
2022-11-20T18:40:36.987Z,100258.63
2022-11-20T18:43:43.798Z,100262.47
2022-11-20T18:46:33.028Z,100259.69
2022-11-20T18:49:23.697Z,100249.38
2022-11-20T18:52:14.233Z,100258.16
2022-11-20T18:55:05.098Z,100243.03
2022-11-20T18:57:55.390Z,100261.47
2022-11-20T19:00:44.745Z,100248.38
2022-11-20T19:03:34.227Z,100248.19
2022-11-20T19:06:25.729Z,100240.31
2022-11-20T19:09:15.350Z,100240.31
2022-11-20T19:12:04.812Z,100244.25
2022-11-20T19:14:54.120Z,100239.09
2022-11-20T19:17:48.907Z,100225.59
2022-11-20T19:20:38.355Z,100229.34
2022-11-20T19:23:29.093Z,100247.16
2022-11-20T19:26:19.269Z,100235.97
2022-11-20T19:29:09.047Z,100215.31
2022-11-20T19:31:58.937Z,100215.00
2022-11-20T19:34:48.185Z,100229.09
2022-11-20T19:37:37.468Z,100217.88
2022-11-20T19:40:28.156Z,100200.63
2022-11-20T19:43:17.657Z,100207.94
2022-11-20T19:46:07.283Z,100221.09
2022-11-20T19:48:57.541Z,100205.78
2022-11-20T19:51:49.270Z,100208.50
2022-11-20T19:54:38.622Z,100226.03
2022-11-20T19:57:29.687Z,100225.16
2022-11-20T20:00:28.096Z,100212.41
2022-11-20T20:03:20.522Z,100213.69
2022-11-20T20:06:13.904Z,100204.53
2022-11-20T20:09:05.989Z,100203.75
2022-11-20T20:11:55.529Z,100216.34
2022-11-20T20:14:46.320Z,100213.56
2022-11-20T20:17:35.937Z,100209.66
2022-11-20T20:20:26.019Z,100198.84
2022-11-20T20:23:15.590Z,100204.13
2022-11-20T20:26:06.423Z,100209.25
2022-11-20T20:28:56.362Z,100190.91
2022-11-20T20:31:47.724Z,100189.94
2022-11-20T20:34:37.544Z,100185.88
2022-11-20T20:37:27.288Z,100178.97
2022-11-20T20:40:19.080Z,100183.19
2022-11-20T20:43:08.347Z,100165.66
2022-11-20T20:45:57.859Z,100173.59
2022-11-20T20:48:54.040Z,100153.19
2022-11-20T20:51:43.954Z,100147.13
2022-11-20T20:54:34.643Z,100152.78
2022-11-20T20:57:25.443Z,100142.06
2022-11-20T21:00:15.769Z,100132.47
2022-11-20T21:03:05.124Z,100130.38
2022-11-20T21:05:58.811Z,100131.88
2022-11-20T21:08:48.293Z,100128.06
2022-11-20T21:11:39.779Z,100116.53
2022-11-20T21:14:29.285Z,100117.66
2022-11-20T21:17:18.670Z,100115.25
2022-11-20T21:20:30.211Z,100105.66
2022-11-20T21:23:21.359Z,100106.66
2022-11-20T21:26:11.482Z,100097.25
2022-11-20T21:29:00.890Z,100088.66
2022-11-20T21:31:50.696Z,100089.50
2022-11-20T21:34:40.096Z,100071.44
2022-11-20T21:37:29.828Z,100058.50
2022-11-20T21:40:20.738Z,100041.22
2022-11-20T21:43:10.147Z,100020.25
2022-11-20T21:46:04.427Z,100021.72
2022-11-20T21:48:53.987Z,100016.91
2022-11-20T21:51:43.468Z,100024.44
2022-11-20T21:54:35.808Z,100008.22
2022-11-20T21:57:26.797Z,99986.75
2022-11-20T22:00:16.996Z,99970.53
2022-11-20T22:03:06.494Z,99976.47
2022-11-20T22:05:57.609Z,99985.88
2022-11-20T22:08:47.170Z,100001.53
2022-11-20T22:11:36.582Z,99979.41
2022-11-20T22:14:27.539Z,99981.88
2022-11-20T22:17:17.540Z,99955.50
2022-11-20T22:20:09.091Z,99980.22
2022-11-20T22:22:58.444Z,99963.25
2022-11-20T22:25:47.821Z,99952.50
2022-11-20T22:28:38.371Z,99946.28
2022-11-20T22:31:31.410Z,99952.19
2022-11-20T22:34:21.357Z,99950.16
2022-11-20T22:37:11.011Z,99948.53
2022-11-20T22:40:00.594Z,99947.31
2022-11-20T22:42:49.976Z,99934.66
2022-11-20T22:45:39.249Z,99923.44
2022-11-20T22:48:29.949Z,99928.75
2022-11-20T22:51:21.552Z,99905.69
2022-11-20T22:54:13.367Z,99888.72
2022-11-20T22:57:02.868Z,99888.41
2022-11-20T22:59:52.138Z,99879.16
2022-11-20T23:02:46.695Z,99873.88
2022-11-20T23:05:37.309Z,99884.78
2022-11-20T23:08:26.699Z,99870.34
2022-11-20T23:11:18.695Z,99880.31
2022-11-20T23:14:12.762Z,99883.53
2022-11-20T23:17:02.097Z,99883.84
2022-11-20T23:19:51.443Z,99879.53
2022-11-20T23:22:42.188Z,99881.94
2022-11-20T23:25:31.522Z,99877.59
2022-11-20T23:28:20.744Z,99879.84
2022-11-20T23:31:12.707Z,99857.34
2022-11-20T23:34:02.409Z,99850.78
2022-11-20T23:36:51.986Z,99842.06
2022-11-20T23:39:42.789Z,99836.59
2022-11-20T23:42:32.171Z,99830.63
2022-11-20T23:45:21.475Z,99832.09
2022-11-20T23:48:10.834Z,99830.97
2022-11-20T23:51:00.495Z,99820.03
2022-11-20T23:53:49.815Z,99811.34
2022-11-20T23:56:40.543Z,99815.84
2022-11-20T23:59:29.809Z,99817.75
